4NA3 weather

Peterson Airstrip
Antler, North Dakota, United States

Public forecast

Using degrees Fahrenheit for public forecast. Weather courtesy of forecast.io.

Closest aviation weather report (METAR) to Peterson Airstrip

Closest report is Minot Air Force Base, 26.6 nm (49.3 km) S. Retrieved 2020/02/20 03:56 UTC (29 minutes ago):

KMIB 200356Z AUTO 20007KT 10SM CLR M17/M22 A3053 RMK AO2 SLP394 T11681219

Closest aviation forecast (TAF) to Peterson Airstrip

Closest forecast is Minot Air Force Base, 26.6 nm (49.3 km) S. Retrieved 2020-02-20 01:06 UTC (3 hours ago):

TAF KMIB 200100Z 2001/2107 VRB06KT 9999 SKC QNH3034INS BECMG 2018/2019 23010G15KT 9999 SKC QNH3000INS TX01/2021Z TNM15/2003Z